createdAt,value
2018-07-27T00:00:58.406Z,23.72
2018-07-27T00:01:58.392Z,23.66
2018-07-27T00:02:58.376Z,23.72
2018-07-27T00:03:58.364Z,23.79
2018-07-27T00:04:58.347Z,23.73
2018-07-27T00:05:58.333Z,23.72
2018-07-27T00:06:58.318Z,23.75
2018-07-27T00:07:58.303Z,23.78
2018-07-27T00:08:58.288Z,23.72
2018-07-27T00:09:58.274Z,23.70
2018-07-27T00:10:58.259Z,23.60
2018-07-27T00:11:58.245Z,23.75
2018-07-27T00:12:58.228Z,23.75
2018-07-27T00:13:58.214Z,23.60
2018-07-27T00:14:58.201Z,23.76
2018-07-27T00:15:58.186Z,23.61
2018-07-27T00:16:58.170Z,23.61
2018-07-27T00:17:58.156Z,23.61
2018-07-27T00:18:58.140Z,23.53
2018-07-27T00:19:58.127Z,23.40
2018-07-27T00:20:58.111Z,23.40
2018-07-27T00:21:58.096Z,23.43
2018-07-27T00:22:58.083Z,23.50
2018-07-27T00:23:58.069Z,23.54
2018-07-27T00:24:58.051Z,23.47
2018-07-27T00:25:58.036Z,23.46
2018-07-27T00:26:58.023Z,23.47
2018-07-27T00:27:58.008Z,23.36
2018-07-27T00:28:57.991Z,23.23
2018-07-27T00:29:57.976Z,23.33
2018-07-27T00:30:57.962Z,23.27
2018-07-27T00:31:57.948Z,23.46
2018-07-27T00:32:57.932Z,23.42
2018-07-27T00:33:57.924Z,23.35
2018-07-27T00:34:57.902Z,23.28
2018-07-27T00:35:57.888Z,23.28
2018-07-27T00:36:57.872Z,23.27
2018-07-27T00:37:57.857Z,23.25
2018-07-27T00:38:57.843Z,23.31
2018-07-27T00:39:57.828Z,23.17
2018-07-27T00:40:57.810Z,23.27
2018-07-27T00:41:57.797Z,23.35
2018-07-27T00:42:57.781Z,23.10
2018-07-27T00:43:57.766Z,23.04
2018-07-27T00:44:57.750Z,23.15
2018-07-27T00:45:57.740Z,23.16
2018-07-27T00:46:57.721Z,22.95
2018-07-27T00:47:57.705Z,23.00
2018-07-27T00:48:57.691Z,22.91
2018-07-27T00:49:57.675Z,23.09
2018-07-27T00:50:57.662Z,22.98
2018-07-27T00:51:57.646Z,23.04
2018-07-27T00:52:57.629Z,23.13
2018-07-27T00:53:57.613Z,23.15
2018-07-27T00:54:57.600Z,23.00
2018-07-27T00:55:57.584Z,23.01
2018-07-27T00:56:57.568Z,23.00
2018-07-27T00:57:57.561Z,22.98
2018-07-27T00:58:57.539Z,22.95
2018-07-27T00:59:57.538Z,22.94
2018-07-27T01:00:57.510Z,23.00
2018-07-27T01:01:57.491Z,22.95
2018-07-27T01:02:57.477Z,22.97
2018-07-27T01:03:57.463Z,22.83
2018-07-27T01:04:57.446Z,23.01
2018-07-27T01:05:57.431Z,22.98
2018-07-27T01:06:57.415Z,22.90
2018-07-27T01:07:57.400Z,22.94
2018-07-27T01:08:57.384Z,23.00
2018-07-27T01:09:57.368Z,22.79
2018-07-27T01:10:57.353Z,22.70
2018-07-27T01:11:57.340Z,22.68
2018-07-27T01:12:57.322Z,22.68
2018-07-27T01:13:57.307Z,22.64
2018-07-27T01:14:57.291Z,22.68
2018-07-27T01:15:57.277Z,22.70
2018-07-27T01:16:57.262Z,22.73
2018-07-27T01:17:57.247Z,22.72
2018-07-27T01:18:57.229Z,22.62
2018-07-27T01:19:57.215Z,22.76
2018-07-27T01:20:57.201Z,22.76
2018-07-27T01:21:57.184Z,22.70
2018-07-27T01:22:57.167Z,22.62
2018-07-27T01:23:57.153Z,22.64
2018-07-27T01:24:57.135Z,22.68
2018-07-27T01:25:57.121Z,22.61
2018-07-27T01:26:57.105Z,22.64
2018-07-27T01:27:57.089Z,22.64
2018-07-27T01:28:57.073Z,22.67
2018-07-27T01:29:57.057Z,22.64
2018-07-27T01:30:57.042Z,22.67
2018-07-27T01:31:57.028Z,22.51
2018-07-27T01:32:57.011Z,22.33
2018-07-27T01:33:56.995Z,22.37
2018-07-27T01:34:56.980Z,22.40
2018-07-27T01:35:56.964Z,22.39
2018-07-27T01:36:56.948Z,22.37
2018-07-27T01:37:56.932Z,22.43
2018-07-27T01:38:56.917Z,22.39
2018-07-27T01:39:56.902Z,22.31
2018-07-27T01:40:56.886Z,22.35
2018-07-27T01:41:56.870Z,22.33
2018-07-27T01:42:56.855Z,22.31
2018-07-27T01:43:56.839Z,22.40
2018-07-27T01:44:56.823Z,22.40
2018-07-27T01:45:56.807Z,22.39
2018-07-27T01:46:56.791Z,22.31
2018-07-27T01:47:56.778Z,22.40
2018-07-27T01:48:56.759Z,22.35
2018-07-27T01:49:56.744Z,22.37
2018-07-27T01:50:56.793Z,22.30
2018-07-27T01:51:56.712Z,22.39
2018-07-27T01:52:56.700Z,22.31
2018-07-27T01:53:56.680Z,22.42
2018-07-27T01:54:56.664Z,22.42
2018-07-27T01:55:56.650Z,22.33
2018-07-27T01:56:56.632Z,22.40
2018-07-27T01:57:56.617Z,22.30
2018-07-27T01:58:56.602Z,22.37
2018-07-27T01:59:56.587Z,22.37
2018-07-27T02:00:56.570Z,22.36
2018-07-27T02:01:56.554Z,22.30
2018-07-27T02:02:56.538Z,22.33
2018-07-27T02:03:56.523Z,22.42
2018-07-27T02:04:56.508Z,22.36
2018-07-27T02:05:56.494Z,22.37
2018-07-27T02:06:56.475Z,22.55
2018-07-27T02:07:56.459Z,22.61
2018-07-27T02:08:56.442Z,22.61
2018-07-27T02:09:56.431Z,22.36
2018-07-27T02:10:56.413Z,22.49
2018-07-27T02:11:56.396Z,22.45
2018-07-27T02:12:56.426Z,22.35
2018-07-27T02:13:56.365Z,22.36
2018-07-27T02:14:56.349Z,22.54
2018-07-27T02:15:56.333Z,22.39
2018-07-27T02:16:56.317Z,22.36
2018-07-27T02:17:56.301Z,22.40
2018-07-27T02:18:56.287Z,22.35
2018-07-27T02:19:56.270Z,22.39
2018-07-27T02:20:56.252Z,22.37
2018-07-27T02:21:56.238Z,22.47
2018-07-27T02:22:56.221Z,22.42
2018-07-27T02:23:56.210Z,22.27
2018-07-27T02:24:56.191Z,22.35
2018-07-27T02:25:56.176Z,22.36
2018-07-27T02:26:56.158Z,22.31
2018-07-27T02:27:56.144Z,22.30
2018-07-27T02:28:56.127Z,22.07
2018-07-27T02:29:56.111Z,22.25
2018-07-27T02:30:56.096Z,22.33
2018-07-27T02:31:56.081Z,22.43
2018-07-27T02:32:56.064Z,22.39
2018-07-27T02:33:56.272Z,22.36
2018-07-27T02:34:56.034Z,22.40
2018-07-27T02:35:56.017Z,22.37
2018-07-27T02:36:56.002Z,22.37
2018-07-27T02:37:55.985Z,22.36
2018-07-27T02:38:55.969Z,22.40
2018-07-27T02:39:55.961Z,22.42
2018-07-27T02:40:55.938Z,22.42
2018-07-27T02:41:55.927Z,22.36
2018-07-27T02:42:55.907Z,22.42
2018-07-27T02:43:55.892Z,22.31
2018-07-27T02:44:55.875Z,22.36
2018-07-27T02:45:55.858Z,22.39
2018-07-27T02:46:55.845Z,22.35
2018-07-27T02:47:55.828Z,22.33
2018-07-27T02:48:55.810Z,22.39
2018-07-27T02:49:55.796Z,22.37
2018-07-27T02:50:55.784Z,22.33
2018-07-27T02:51:55.764Z,22.35
2018-07-27T02:52:55.749Z,22.36
2018-07-27T02:53:55.732Z,22.24
2018-07-27T02:54:55.716Z,22.30
2018-07-27T02:55:55.702Z,22.35
2018-07-27T02:56:55.687Z,22.36
2018-07-27T02:57:55.670Z,22.35
2018-07-27T02:58:55.656Z,22.39
2018-07-27T02:59:55.672Z,22.33
2018-07-27T03:00:55.621Z,22.22
2018-07-27T03:01:55.605Z,22.25
2018-07-27T03:02:55.597Z,22.20
2018-07-27T03:03:55.576Z,22.20
2018-07-27T03:04:55.559Z,22.21
2018-07-27T03:05:55.548Z,22.28
2018-07-27T03:06:55.528Z,22.35
2018-07-27T03:07:55.535Z,22.33
2018-07-27T03:08:55.502Z,22.40
2018-07-27T03:09:55.479Z,22.30
2018-07-27T03:10:55.465Z,22.35
2018-07-27T03:11:55.450Z,22.27
2018-07-27T03:12:55.432Z,22.24
2018-07-27T03:13:55.416Z,22.27
2018-07-27T03:14:55.401Z,22.18
2018-07-27T03:15:55.385Z,22.33
2018-07-27T03:16:55.367Z,22.33
2018-07-27T03:17:55.353Z,22.33
2018-07-27T03:18:55.336Z,22.42
2018-07-27T03:19:55.322Z,22.22
2018-07-27T03:20:55.303Z,22.20
2018-07-27T03:21:55.289Z,22.27
2018-07-27T03:22:55.274Z,22.14
2018-07-27T03:23:55.280Z,22.24
2018-07-27T03:24:55.241Z,22.17
2018-07-27T03:25:55.225Z,22.18
2018-07-27T03:26:55.212Z,22.20
2018-07-27T03:27:55.195Z,22.03
2018-07-27T03:28:55.178Z,22.17
2018-07-27T03:29:55.162Z,22.07
2018-07-27T03:30:55.147Z,22.18
2018-07-27T03:31:55.131Z,22.14
2018-07-27T03:32:55.115Z,22.20
2018-07-27T03:33:55.099Z,21.91
2018-07-27T03:34:55.083Z,22.10
2018-07-27T03:35:55.072Z,22.14
2018-07-27T03:36:55.051Z,22.25
2018-07-27T03:37:55.038Z,22.12
2018-07-27T03:38:55.019Z,22.17
2018-07-27T03:39:55.004Z,22.22
2018-07-27T03:40:54.985Z,22.21
2018-07-27T03:41:54.970Z,22.14
2018-07-27T03:42:54.955Z,22.14
2018-07-27T03:43:54.939Z,22.20
2018-07-27T03:44:54.922Z,22.14
2018-07-27T03:45:54.906Z,22.22
2018-07-27T03:46:54.890Z,22.25
2018-07-27T03:47:54.876Z,22.18
2018-07-27T03:48:54.859Z,22.10
2018-07-27T03:49:54.842Z,22.15
2018-07-27T03:50:54.828Z,22.24
2018-07-27T03:51:54.811Z,22.18
2018-07-27T03:52:54.795Z,22.14
2018-07-27T03:53:54.779Z,22.14
2018-07-27T03:54:54.765Z,22.05
2018-07-27T03:55:54.747Z,22.17
2018-07-27T03:56:54.733Z,22.14
2018-07-27T03:57:54.715Z,22.05
2018-07-27T03:58:54.698Z,22.05
2018-07-27T03:59:54.682Z,22.15
2018-07-27T04:00:54.665Z,22.21
2018-07-27T04:01:54.653Z,22.28
2018-07-27T04:02:54.635Z,22.21
2018-07-27T04:03:54.618Z,22.21
2018-07-27T04:04:54.603Z,22.07
2018-07-27T04:05:54.586Z,22.21
2018-07-27T04:06:54.570Z,22.31
2018-07-27T04:07:54.554Z,22.35
2018-07-27T04:08:54.537Z,22.28
2018-07-27T04:09:54.522Z,22.33
2018-07-27T04:10:54.507Z,22.40
2018-07-27T04:11:54.491Z,22.43
2018-07-27T04:12:54.476Z,22.57
2018-07-27T04:13:54.458Z,22.55
2018-07-27T04:14:54.446Z,22.35
2018-07-27T04:15:54.427Z,22.40
2018-07-27T04:16:54.410Z,22.24
2018-07-27T04:17:54.394Z,22.42
2018-07-27T04:18:54.383Z,22.42
2018-07-27T04:19:54.363Z,22.54
2018-07-27T04:20:54.352Z,22.39
2018-07-27T04:21:54.330Z,22.43
2018-07-27T04:22:54.316Z,22.55
2018-07-27T04:23:54.299Z,22.52
2018-07-27T04:24:54.283Z,22.31
2018-07-27T04:25:54.266Z,22.55
2018-07-27T04:26:54.251Z,22.58
2018-07-27T04:27:54.238Z,22.70
2018-07-27T04:28:54.220Z,22.68
2018-07-27T04:29:54.202Z,22.75
2018-07-27T04:30:54.188Z,22.76
2018-07-27T04:31:54.172Z,22.80
2018-07-27T04:32:54.156Z,22.49
2018-07-27T04:33:54.140Z,22.67
2018-07-27T04:34:54.126Z,22.67
2018-07-27T04:35:54.109Z,22.68
2018-07-27T04:36:54.091Z,22.64
2018-07-27T04:37:54.075Z,22.68
2018-07-27T04:38:54.061Z,22.58
2018-07-27T04:39:54.044Z,22.73
2018-07-27T04:40:54.028Z,22.65
2018-07-27T04:41:54.012Z,22.79
2018-07-27T04:42:54.020Z,22.85
2018-07-27T04:43:53.980Z,22.77
2018-07-27T04:44:53.965Z,22.70
2018-07-27T04:45:53.949Z,22.58
2018-07-27T04:46:53.937Z,22.61
2018-07-27T04:47:53.917Z,22.64
2018-07-27T04:48:53.900Z,22.68
2018-07-27T04:49:53.885Z,22.88
2018-07-27T04:50:53.868Z,23.02
2018-07-27T04:51:53.853Z,23.00
2018-07-27T04:52:53.836Z,22.86
2018-07-27T04:53:53.823Z,23.00
2018-07-27T04:54:53.805Z,22.97
2018-07-27T04:55:53.789Z,22.67
2018-07-27T04:56:53.773Z,22.86
2018-07-27T04:57:53.756Z,22.95
2018-07-27T04:58:53.740Z,22.88
2018-07-27T04:59:53.725Z,22.85
2018-07-27T05:00:53.707Z,23.01
2018-07-27T05:01:53.693Z,22.97
2018-07-27T05:02:53.678Z,22.82
2018-07-27T05:03:53.661Z,22.79
2018-07-27T05:04:53.643Z,23.01
2018-07-27T05:05:53.628Z,22.98
2018-07-27T05:06:53.613Z,23.00
2018-07-27T05:07:53.597Z,23.10
2018-07-27T05:08:53.579Z,23.13
2018-07-27T05:09:53.564Z,22.85
2018-07-27T05:10:53.550Z,23.04
2018-07-27T05:11:53.555Z,23.09
2018-07-27T05:12:53.517Z,23.12
2018-07-27T05:13:53.499Z,23.02
2018-07-27T05:14:53.489Z,23.27
2018-07-27T05:15:53.466Z,23.10
2018-07-27T05:16:53.451Z,23.13
2018-07-27T05:17:53.437Z,23.31
2018-07-27T05:18:53.418Z,23.38
2018-07-27T05:19:53.403Z,23.28
2018-07-27T05:20:53.386Z,23.12
2018-07-27T05:21:53.370Z,23.20
2018-07-27T05:22:53.354Z,23.31
2018-07-27T05:23:53.340Z,23.47
2018-07-27T05:24:53.323Z,23.60
2018-07-27T05:25:53.306Z,23.51
2018-07-27T05:26:53.291Z,23.51
2018-07-27T05:27:53.275Z,23.55
2018-07-27T05:28:53.261Z,23.42
2018-07-27T05:29:53.245Z,23.48
2018-07-27T05:30:53.229Z,23.58
2018-07-27T05:31:53.211Z,23.58
2018-07-27T05:32:53.195Z,23.53
2018-07-27T05:33:53.185Z,23.55
2018-07-27T05:34:53.166Z,23.61
2018-07-27T05:35:53.149Z,23.80
2018-07-27T05:36:53.131Z,23.83
2018-07-27T05:37:53.116Z,23.97
2018-07-27T05:38:53.101Z,23.94
2018-07-27T05:39:53.087Z,23.91
2018-07-27T05:40:53.069Z,23.73
2018-07-27T05:41:53.053Z,23.83
2018-07-27T05:42:53.039Z,23.78
2018-07-27T05:43:53.024Z,23.90
2018-07-27T05:44:53.007Z,23.94
2018-07-27T05:45:52.991Z,23.93
2018-07-27T05:46:53.008Z,24.02
2018-07-27T05:47:52.961Z,24.09
2018-07-27T05:48:52.944Z,24.13
2018-07-27T05:49:52.929Z,24.16
2018-07-27T05:50:52.914Z,24.25
2018-07-27T05:51:52.900Z,24.39
2018-07-27T05:52:52.884Z,24.42
2018-07-27T05:53:52.868Z,24.35
2018-07-27T05:54:52.857Z,24.34
2018-07-27T05:55:52.837Z,24.40
2018-07-27T05:56:52.822Z,24.46
2018-07-27T05:57:52.807Z,24.47
2018-07-27T05:58:52.794Z,24.45
2018-07-27T05:59:52.776Z,24.39
2018-07-27T06:00:52.761Z,24.52
2018-07-27T06:01:52.788Z,24.57
2018-07-27T06:02:52.738Z,24.58
2018-07-27T06:03:52.720Z,24.71
2018-07-27T06:04:52.741Z,24.58
2018-07-27T06:05:52.686Z,24.71
2018-07-27T06:06:52.672Z,24.65
2018-07-27T06:07:52.657Z,24.78
2018-07-27T06:08:52.641Z,24.88
2018-07-27T06:09:52.625Z,24.98
2018-07-27T06:10:52.610Z,25.00
2018-07-27T06:11:52.597Z,24.95
2018-07-27T06:12:52.581Z,24.98
2018-07-27T06:13:52.566Z,25.08
2018-07-27T06:14:52.552Z,25.10
2018-07-27T06:15:52.539Z,25.17
2018-07-27T06:16:52.523Z,25.28
2018-07-27T06:17:52.621Z,25.23
2018-07-27T06:18:52.494Z,25.30
2018-07-27T06:19:52.480Z,25.28
2018-07-27T06:20:52.489Z,25.27
2018-07-27T06:21:52.455Z,25.25
2018-07-27T06:22:52.438Z,25.47
2018-07-27T06:23:52.499Z,25.43
2018-07-27T06:24:52.408Z,25.58
2018-07-27T06:25:52.394Z,25.72
2018-07-27T06:26:52.381Z,25.72
2018-07-27T06:27:52.367Z,25.67
2018-07-27T06:28:52.351Z,25.82
2018-07-27T06:29:52.372Z,25.79
2018-07-27T06:30:52.348Z,25.87
2018-07-27T06:31:52.310Z,25.92
2018-07-27T06:32:52.294Z,26.01
2018-07-27T06:33:52.282Z,26.07
2018-07-27T06:34:52.268Z,26.05
2018-07-27T06:35:52.254Z,26.01
2018-07-27T06:36:52.240Z,26.01
2018-07-27T06:37:52.224Z,26.35
2018-07-27T06:38:52.211Z,26.44
2018-07-27T06:39:52.198Z,26.43
2018-07-27T06:40:52.184Z,26.80
2018-07-27T06:41:52.170Z,27.06
2018-07-27T06:42:52.156Z,27.34
2018-07-27T06:43:52.148Z,27.60
2018-07-27T06:44:52.129Z,27.55
2018-07-27T06:45:52.119Z,27.29
2018-07-27T06:46:52.103Z,27.81
2018-07-27T06:47:52.091Z,28.06
2018-07-27T06:48:52.080Z,28.12
2018-07-27T06:49:52.067Z,28.41
2018-07-27T06:50:52.056Z,28.71
2018-07-27T06:51:52.047Z,28.95
2018-07-27T06:52:52.035Z,28.96
2018-07-27T06:53:52.022Z,28.90
2018-07-27T06:54:52.010Z,28.93
2018-07-27T06:55:52.000Z,29.21
2018-07-27T06:56:51.989Z,29.37
2018-07-27T06:57:51.978Z,29.74
2018-07-27T06:58:51.969Z,29.76
2018-07-27T06:59:51.959Z,29.70
2018-07-27T07:00:51.951Z,29.21
2018-07-27T07:01:51.942Z,29.27
2018-07-27T07:02:51.932Z,29.78
2018-07-27T07:03:51.924Z,30.11
2018-07-27T07:04:51.915Z,30.42
2018-07-27T07:05:51.906Z,30.38
2018-07-27T07:06:51.896Z,30.54
2018-07-27T07:07:51.891Z,30.42
2018-07-27T07:08:51.881Z,30.62
2018-07-27T07:09:51.874Z,30.62
2018-07-27T07:10:51.864Z,30.51
2018-07-27T07:11:51.856Z,30.64
2018-07-27T07:12:51.849Z,30.89
2018-07-27T07:13:51.841Z,31.07
2018-07-27T07:14:51.834Z,31.28
2018-07-27T07:15:51.828Z,30.88
2018-07-27T07:16:51.819Z,31.19
2018-07-27T07:17:51.814Z,30.97
2018-07-27T07:18:51.806Z,31.23
2018-07-27T07:19:51.800Z,30.99
2018-07-27T07:20:51.790Z,31.39
2018-07-27T07:21:51.787Z,31.93
2018-07-27T07:22:51.782Z,32.03
2018-07-27T07:23:51.771Z,32.22
2018-07-27T07:24:51.764Z,32.37
2018-07-27T07:25:52.089Z,32.07
2018-07-27T07:26:51.752Z,32.52
2018-07-27T07:27:51.747Z,31.76
2018-07-27T07:28:51.739Z,31.29
2018-07-27T07:29:51.733Z,31.91
2018-07-27T07:30:51.725Z,32.04
2018-07-27T07:31:51.718Z,32.62
2018-07-27T07:32:51.712Z,32.21
2018-07-27T07:33:51.705Z,32.26
2018-07-27T07:34:51.700Z,33.53
2018-07-27T07:35:51.691Z,34.65
2018-07-27T07:36:51.683Z,34.75
2018-07-27T07:37:51.675Z,34.12
2018-07-27T07:38:51.668Z,34.89
2018-07-27T07:39:51.671Z,35.52
2018-07-27T07:40:51.654Z,34.52
2018-07-27T07:41:51.648Z,35.94
2018-07-27T07:42:51.641Z,36.47
2018-07-27T07:43:51.693Z,37.10
2018-07-27T07:44:51.627Z,37.60
2018-07-27T07:45:51.621Z,36.39
2018-07-27T07:46:51.615Z,35.15
2018-07-27T07:47:51.609Z,36.08
2018-07-27T07:48:51.603Z,33.86
2018-07-27T07:49:51.595Z,33.50
2018-07-27T07:50:51.590Z,35.10
2018-07-27T07:51:51.582Z,35.97
2018-07-27T07:52:51.575Z,36.28
2018-07-27T07:53:51.572Z,37.28
2018-07-27T07:54:51.561Z,38.28
2018-07-27T07:55:51.555Z,39.28
2018-07-27T07:56:51.547Z,39.41
2018-07-27T07:57:51.542Z,39.94
2018-07-27T07:58:51.538Z,39.77
2018-07-27T07:59:51.530Z,38.50
2018-07-27T08:00:51.525Z,38.25
2018-07-27T08:01:51.518Z,38.34
2018-07-27T08:02:51.513Z,36.25
2018-07-27T08:03:51.508Z,37.60
2018-07-27T08:04:51.500Z,38.22
2018-07-27T08:05:51.495Z,39.23
2018-07-27T08:06:51.489Z,37.39
2018-07-27T08:07:51.483Z,37.31
2018-07-27T08:08:51.477Z,35.22
2018-07-27T08:09:51.471Z,35.84
2018-07-27T08:10:51.463Z,34.31
2018-07-27T08:11:51.456Z,34.28
2018-07-27T08:12:51.448Z,36.53
2018-07-27T08:13:51.442Z,37.02
2018-07-27T08:14:51.434Z,38.65
2018-07-27T08:15:51.428Z,37.39
2018-07-27T08:16:51.419Z,38.19
2018-07-27T08:17:51.413Z,38.90
2018-07-27T08:18:51.406Z,39.45
2018-07-27T08:19:51.399Z,39.98
2018-07-27T08:20:51.391Z,40.38
2018-07-27T08:21:51.385Z,40.16
2018-07-27T08:22:51.379Z,40.57
2018-07-27T08:23:51.376Z,40.16
2018-07-27T08:24:51.367Z,40.77
2018-07-27T08:25:51.373Z,37.97
2018-07-27T08:26:51.356Z,39.43
2018-07-27T08:27:51.349Z,39.01
2018-07-27T08:28:51.343Z,40.10
2018-07-27T08:29:51.338Z,39.43
2018-07-27T08:30:51.331Z,37.57
2018-07-27T08:31:51.326Z,38.31
2018-07-27T08:32:51.318Z,39.23
2018-07-27T08:33:51.314Z,36.51
2018-07-27T08:34:51.309Z,37.36
2018-07-27T08:35:51.302Z,38.87
2018-07-27T08:36:51.297Z,40.23
2018-07-27T08:37:51.288Z,40.67
2018-07-27T08:38:51.332Z,40.64
2018-07-27T08:39:51.278Z,39.40
2018-07-27T08:40:51.272Z,40.08
2018-07-27T08:41:51.265Z,37.69
2018-07-27T08:42:51.259Z,34.22
2018-07-27T08:43:51.255Z,32.84
2018-07-27T08:44:51.245Z,35.45
2018-07-27T08:45:51.239Z,37.13
2018-07-27T08:46:51.233Z,37.60
2018-07-27T08:47:51.226Z,39.72
2018-07-27T08:48:51.218Z,39.47
2018-07-27T08:49:51.213Z,40.10
2018-07-27T08:50:51.207Z,41.58
2018-07-27T08:51:51.200Z,41.26
2018-07-27T08:52:51.191Z,41.45
2018-07-27T08:53:51.186Z,39.06
2018-07-27T08:54:51.179Z,40.76
2018-07-27T08:55:51.174Z,42.05
2018-07-27T08:56:51.167Z,38.96
2018-07-27T08:57:51.162Z,40.23
2018-07-27T08:58:51.154Z,39.14
2018-07-27T08:59:51.151Z,40.12
2018-07-27T09:00:51.146Z,41.58
2018-07-27T09:01:51.135Z,40.48
2018-07-27T09:02:51.129Z,38.93
2018-07-27T09:03:51.149Z,40.32
2018-07-27T09:04:51.116Z,40.87
2018-07-27T09:05:51.110Z,40.43
2018-07-27T09:06:51.103Z,40.01
2018-07-27T09:07:51.097Z,38.69
2018-07-27T09:08:51.090Z,36.19
2018-07-27T09:09:51.084Z,33.49
2018-07-27T09:10:51.078Z,32.92
2018-07-27T09:11:51.069Z,33.59
2018-07-27T09:12:51.063Z,33.39
2018-07-27T09:13:51.055Z,33.91
2018-07-27T09:14:51.049Z,34.66
2018-07-27T09:15:51.040Z,35.59
2018-07-27T09:16:51.032Z,37.64
2018-07-27T09:17:51.024Z,38.41
2018-07-27T09:18:51.017Z,35.96
2018-07-27T09:19:51.013Z,37.70
2018-07-27T09:20:51.001Z,39.18
2018-07-27T09:21:50.995Z,40.27
2018-07-27T09:22:50.986Z,37.82
2018-07-27T09:23:50.980Z,37.86
2018-07-27T09:24:51.171Z,38.87
2018-07-27T09:25:50.963Z,39.86
2018-07-27T09:26:50.956Z,36.88
2018-07-27T09:27:50.948Z,36.22
2018-07-27T09:28:50.940Z,38.42
2018-07-27T09:29:50.932Z,40.51
2018-07-27T09:30:50.925Z,41.37
2018-07-27T09:31:50.918Z,40.42
2018-07-27T09:32:50.910Z,40.88
2018-07-27T09:33:50.902Z,38.26
2018-07-27T09:34:50.895Z,39.89
2018-07-27T09:35:50.889Z,38.44
2018-07-27T09:36:50.880Z,39.01
2018-07-27T09:37:50.873Z,38.26
2018-07-27T09:38:50.866Z,38.79
2018-07-27T09:39:50.859Z,38.47
2018-07-27T09:40:50.851Z,38.76
2018-07-27T09:41:50.845Z,40.42
2018-07-27T09:42:50.837Z,41.10
2018-07-27T09:43:50.832Z,41.18
2018-07-27T09:44:50.822Z,40.79
2018-07-27T09:45:50.816Z,42.01
2018-07-27T09:46:50.810Z,37.32
2018-07-27T09:47:50.804Z,34.35
2018-07-27T09:48:50.796Z,34.87
2018-07-27T09:49:50.790Z,35.80
2018-07-27T09:50:50.782Z,36.80
2018-07-27T09:51:50.776Z,39.30
2018-07-27T09:52:50.768Z,41.16
2018-07-27T09:53:50.794Z,41.07
2018-07-27T09:54:50.755Z,41.26
2018-07-27T09:55:50.750Z,42.01
2018-07-27T09:56:50.740Z,42.81
2018-07-27T09:57:50.749Z,42.17
2018-07-27T09:58:50.729Z,38.83
2018-07-27T09:59:50.722Z,37.05
2018-07-27T10:00:50.715Z,34.46
2018-07-27T10:01:50.708Z,35.04
2018-07-27T10:02:50.702Z,38.87
2018-07-27T10:03:50.694Z,40.25
2018-07-27T10:04:50.686Z,41.04
2018-07-27T10:05:50.727Z,41.07
2018-07-27T10:06:50.674Z,40.43
2018-07-27T10:07:50.666Z,41.01
2018-07-27T10:08:50.658Z,42.28
2018-07-27T10:09:50.652Z,42.65
2018-07-27T10:10:50.647Z,40.08
2018-07-27T10:11:50.640Z,35.87
2018-07-27T10:12:50.694Z,38.01
2018-07-27T10:13:50.625Z,39.33
2018-07-27T10:14:50.619Z,39.30
2018-07-27T10:15:50.612Z,38.52
2018-07-27T10:16:50.604Z,37.13
2018-07-27T10:17:50.596Z,39.10
2018-07-27T10:18:50.592Z,38.07
2018-07-27T10:19:50.583Z,39.69
2018-07-27T10:20:50.576Z,36.85
2018-07-27T10:21:50.568Z,38.87
2018-07-27T10:22:50.560Z,39.13
2018-07-27T10:23:50.553Z,36.80
2018-07-27T10:24:50.544Z,34.56
2018-07-27T10:25:50.537Z,35.75
2018-07-27T10:26:50.531Z,38.60
2018-07-27T10:27:50.523Z,36.41
2018-07-27T10:28:50.514Z,39.41
2018-07-27T10:29:50.507Z,38.57
2018-07-27T10:30:50.499Z,38.30
2018-07-27T10:31:50.492Z,40.48
2018-07-27T10:32:50.482Z,40.45
2018-07-27T10:33:50.475Z,35.07
2018-07-27T10:34:50.466Z,34.42
2018-07-27T10:35:50.460Z,38.25
2018-07-27T10:36:50.451Z,39.04
2018-07-27T10:37:50.442Z,37.64
2018-07-27T10:38:50.436Z,39.67
2018-07-27T10:39:50.427Z,41.99
2018-07-27T10:40:50.420Z,39.59
2018-07-27T10:41:50.412Z,40.10
2018-07-27T10:42:50.407Z,41.14
2018-07-27T10:43:50.398Z,37.07
2018-07-27T10:44:50.423Z,39.11
2018-07-27T10:45:50.384Z,41.20
2018-07-27T10:46:50.377Z,41.87
2018-07-27T10:47:50.370Z,41.18
2018-07-27T10:48:50.364Z,40.80
2018-07-27T10:49:50.357Z,36.44
2018-07-27T10:50:50.351Z,34.88
2018-07-27T10:51:50.344Z,33.56
2018-07-27T10:52:50.338Z,34.88
2018-07-27T10:53:50.331Z,38.22
2018-07-27T10:54:50.325Z,40.06
2018-07-27T10:55:50.318Z,40.95
2018-07-27T10:56:50.311Z,42.42
2018-07-27T10:57:50.309Z,37.40
2018-07-27T10:58:50.298Z,36.88
2018-07-27T10:59:50.292Z,39.03
2018-07-27T11:00:50.284Z,38.53
2018-07-27T11:01:50.279Z,40.04
2018-07-27T11:02:50.272Z,39.38
2018-07-27T11:03:50.269Z,40.08
2018-07-27T11:04:50.260Z,40.72
2018-07-27T11:05:50.259Z,38.90
2018-07-27T11:06:50.247Z,35.36
2018-07-27T11:07:50.239Z,33.54
2018-07-27T11:08:50.246Z,33.06
2018-07-27T11:09:50.273Z,32.92
2018-07-27T11:10:50.220Z,32.56
2018-07-27T11:11:50.214Z,35.90
2018-07-27T11:12:50.205Z,38.23
2018-07-27T11:13:50.200Z,38.38
2018-07-27T11:14:50.192Z,39.63
2018-07-27T11:15:50.184Z,40.69
2018-07-27T11:16:50.177Z,40.96
2018-07-27T11:17:50.185Z,41.70
2018-07-27T11:18:50.164Z,40.34
2018-07-27T11:19:50.158Z,38.23
2018-07-27T11:20:50.151Z,38.52
2018-07-27T11:21:50.145Z,39.30
2018-07-27T11:22:50.139Z,39.25
2018-07-27T11:23:50.132Z,39.14
2018-07-27T11:24:50.124Z,39.51
2018-07-27T11:25:50.118Z,38.75
2018-07-27T11:26:50.112Z,36.93
2018-07-27T11:27:50.105Z,34.64
2018-07-27T11:28:50.098Z,34.15
2018-07-27T11:29:50.091Z,34.32
2018-07-27T11:30:50.085Z,33.75
2018-07-27T11:31:50.080Z,33.56
2018-07-27T11:32:50.071Z,36.09
2018-07-27T11:33:50.065Z,36.03
2018-07-27T11:34:50.057Z,34.53
2018-07-27T11:35:50.052Z,33.88
2018-07-27T11:36:50.045Z,33.51
2018-07-27T11:37:50.037Z,33.14
2018-07-27T11:38:50.030Z,32.69
2018-07-27T11:39:50.025Z,32.57
2018-07-27T11:40:50.015Z,32.88
2018-07-27T11:41:50.007Z,33.22
2018-07-27T11:42:49.999Z,32.70
2018-07-27T11:43:49.992Z,32.41
2018-07-27T11:44:49.983Z,32.50
2018-07-27T11:45:49.976Z,32.29
2018-07-27T11:46:49.968Z,32.70
2018-07-27T11:47:49.959Z,32.78
2018-07-27T11:48:49.953Z,32.44
2018-07-27T11:49:49.941Z,32.35
2018-07-27T11:50:49.933Z,32.40
2018-07-27T11:51:49.924Z,32.29
2018-07-27T11:52:49.915Z,32.33
2018-07-27T11:53:49.908Z,32.26
2018-07-27T11:54:49.900Z,31.92
2018-07-27T11:55:49.890Z,32.07
2018-07-27T11:56:49.883Z,31.54
2018-07-27T11:57:49.872Z,31.70
2018-07-27T11:58:49.863Z,31.84
2018-07-27T11:59:49.853Z,31.56
2018-07-27T12:00:49.845Z,31.65
2018-07-27T12:01:49.833Z,31.69
2018-07-27T12:02:49.823Z,31.51
2018-07-27T12:03:49.813Z,31.61
2018-07-27T12:04:49.803Z,31.61
2018-07-27T12:05:49.794Z,31.25
2018-07-27T12:06:49.783Z,31.17
2018-07-27T12:07:49.772Z,31.46
2018-07-27T12:08:49.761Z,31.58
2018-07-27T12:09:49.750Z,31.72
2018-07-27T12:10:49.740Z,31.91
2018-07-27T12:11:49.729Z,32.14
2018-07-27T12:12:49.718Z,32.10
2018-07-27T12:13:49.739Z,32.15
2018-07-27T12:14:49.810Z,31.57
2018-07-27T12:15:49.687Z,31.36
2018-07-27T12:16:49.676Z,31.54
2018-07-27T12:17:49.666Z,31.81
2018-07-27T12:18:49.657Z,31.68
2018-07-27T12:19:49.645Z,31.58
2018-07-27T12:20:49.746Z,31.76
2018-07-27T12:21:49.790Z,31.35
2018-07-27T12:22:49.612Z,31.62
2018-07-27T12:23:49.602Z,31.41
2018-07-27T12:24:49.591Z,31.65
2018-07-27T12:25:49.582Z,31.80
2018-07-27T12:26:49.570Z,31.78
2018-07-27T12:27:49.559Z,31.89
2018-07-27T12:28:49.549Z,31.76
2018-07-27T12:29:49.539Z,31.51
2018-07-27T12:30:49.530Z,31.46
2018-07-27T12:31:49.519Z,31.44
2018-07-27T12:32:49.510Z,31.35
2018-07-27T12:33:49.498Z,31.47
2018-07-27T12:34:49.487Z,31.38
2018-07-27T12:35:49.477Z,31.65
2018-07-27T12:36:49.465Z,31.81
2018-07-27T12:37:49.455Z,31.65
2018-07-27T12:38:49.467Z,31.46
2018-07-27T12:39:49.436Z,31.62
2018-07-27T12:40:49.423Z,31.80
2018-07-27T12:41:49.415Z,31.68
2018-07-27T12:42:49.403Z,31.88
2018-07-27T12:43:49.393Z,32.14
2018-07-27T12:44:49.384Z,32.56
2018-07-27T12:45:49.371Z,32.19
2018-07-27T12:46:49.363Z,32.01
2018-07-27T12:47:49.351Z,31.81
2018-07-27T12:48:49.340Z,31.81
2018-07-27T12:49:49.330Z,32.13
2018-07-27T12:50:49.323Z,32.43
2018-07-27T12:51:49.311Z,32.60
2018-07-27T12:52:49.299Z,32.23